createdAt,value
2019-03-29T00:01:59.850Z,90.91
2019-03-29T00:04:31.094Z,91.46
2019-03-29T00:07:02.442Z,91.98
2019-03-29T00:09:33.544Z,92.20
2019-03-29T00:12:05.214Z,92.45
2019-03-29T00:14:36.645Z,92.50
2019-03-29T00:17:08.017Z,92.43
2019-03-29T00:19:39.433Z,92.33
2019-03-29T00:22:10.665Z,92.65
2019-03-29T00:24:41.929Z,92.84
2019-03-29T00:27:13.209Z,92.85
2019-03-29T00:29:44.479Z,92.90
2019-03-29T00:32:15.645Z,93.07
2019-03-29T00:34:47.028Z,93.36
2019-03-29T00:37:18.376Z,93.79
2019-03-29T00:39:50.059Z,94.16
2019-03-29T00:42:21.350Z,94.48
2019-03-29T00:44:52.924Z,94.76
2019-03-29T00:47:24.549Z,95.07
2019-03-29T00:49:55.917Z,95.31
2019-03-29T00:52:27.227Z,95.30
2019-03-29T00:54:58.496Z,95.34
2019-03-29T00:57:30.301Z,95.38
2019-03-29T01:00:02.374Z,95.39
2019-03-29T01:02:34.843Z,95.10
2019-03-29T01:05:07.220Z,95.11
2019-03-29T01:07:39.602Z,94.94
2019-03-29T01:10:10.968Z,94.89
2019-03-29T01:12:42.285Z,94.97
2019-03-29T01:15:13.602Z,94.86
2019-03-29T01:17:45.765Z,94.74
2019-03-29T01:20:17.337Z,94.53
2019-03-29T01:22:48.587Z,93.89
2019-03-29T01:25:20.118Z,93.92
2019-03-29T01:27:51.446Z,93.88
2019-03-29T01:30:23.042Z,93.86
2019-03-29T01:32:54.761Z,93.66
2019-03-29T01:35:26.149Z,93.62
2019-03-29T01:37:57.493Z,93.61
2019-03-29T01:40:28.776Z,93.55
2019-03-29T01:42:59.985Z,93.40
2019-03-29T01:45:31.343Z,93.32
2019-03-29T01:48:02.635Z,93.29
2019-03-29T01:50:34.942Z,93.32
2019-03-29T01:53:06.559Z,93.34
2019-03-29T01:55:37.888Z,92.99
2019-03-29T01:58:09.241Z,92.48
2019-03-29T02:00:40.567Z,92.04
2019-03-29T02:03:13.413Z,91.77
2019-03-29T02:05:44.689Z,91.64
2019-03-29T02:08:15.996Z,91.55
2019-03-29T02:10:47.384Z,91.57
2019-03-29T02:13:18.765Z,91.64
2019-03-29T02:15:50.117Z,91.82
2019-03-29T02:18:21.337Z,91.99
2019-03-29T02:20:52.677Z,92.15
2019-03-29T02:23:23.956Z,92.28
2019-03-29T02:25:55.393Z,92.37
2019-03-29T02:28:26.608Z,92.62
2019-03-29T02:30:59.640Z,92.80
2019-03-29T02:33:30.975Z,92.90
2019-03-29T02:36:04.372Z,92.70
2019-03-29T02:38:53.522Z,92.25
2019-03-29T02:41:08.797Z,91.63
2019-03-29T02:43:40.062Z,91.35
2019-03-29T02:46:11.348Z,91.38
2019-03-29T02:48:44.548Z,91.20
2019-03-29T02:51:15.831Z,91.01
2019-03-29T02:53:47.101Z,90.66
2019-03-29T02:56:18.471Z,90.73
2019-03-29T02:58:49.742Z,91.12
2019-03-29T03:01:21.850Z,91.49
2019-03-29T03:03:53.052Z,91.60
2019-03-29T03:06:24.345Z,91.78
2019-03-29T03:09:12.258Z,91.72
2019-03-29T03:11:29.671Z,91.34
2019-03-29T03:14:01.046Z,90.89
2019-03-29T03:16:32.446Z,90.46
2019-03-29T03:19:03.945Z,90.02
2019-03-29T03:21:35.429Z,89.66
2019-03-29T03:24:06.659Z,89.50
2019-03-29T03:26:37.950Z,89.58
2019-03-29T03:29:09.129Z,89.81
2019-03-29T03:31:40.432Z,90.06
2019-03-29T03:34:11.790Z,90.10
2019-03-29T03:36:43.135Z,90.08
2019-03-29T03:39:30.767Z,90.01
2019-03-29T03:41:49.060Z,89.88
2019-03-29T03:44:20.293Z,89.91
2019-03-29T03:46:51.654Z,89.78
2019-03-29T03:49:23.054Z,89.54
2019-03-29T03:51:54.334Z,89.51
2019-03-29T03:54:25.623Z,89.58
2019-03-29T03:56:56.804Z,89.78
2019-03-29T03:59:28.072Z,89.97
2019-03-29T04:01:59.392Z,90.02
2019-03-29T04:04:30.751Z,90.23
2019-03-29T04:07:02.156Z,90.34
2019-03-29T04:09:48.465Z,90.44
2019-03-29T04:12:06.321Z,90.40
2019-03-29T04:14:37.601Z,90.36
2019-03-29T04:17:08.768Z,90.26
2019-03-29T04:19:40.165Z,90.13
2019-03-29T04:22:11.376Z,90.00
2019-03-29T04:24:42.729Z,89.33
2019-03-29T04:27:14.077Z,88.46
2019-03-29T04:29:45.294Z,88.12
2019-03-29T04:32:16.571Z,87.84
2019-03-29T04:34:47.837Z,87.94
2019-03-29T04:37:19.218Z,87.90
2019-03-29T04:40:06.508Z,87.68
2019-03-29T04:42:23.559Z,87.21
2019-03-29T04:44:54.931Z,86.85
2019-03-29T04:47:26.302Z,86.35
2019-03-29T04:49:57.671Z,86.12
2019-03-29T04:52:28.977Z,85.83
2019-03-29T04:55:00.421Z,85.48
2019-03-29T04:57:31.891Z,85.00
2019-03-29T05:00:03.317Z,84.67
2019-03-29T05:02:35.763Z,84.41
2019-03-29T05:05:07.649Z,84.56
2019-03-29T05:07:38.937Z,84.50
2019-03-29T05:10:21.291Z,84.09
2019-03-29T05:12:43.266Z,83.76
2019-03-29T05:15:14.655Z,83.71
2019-03-29T05:17:45.890Z,83.66
2019-03-29T05:20:18.229Z,83.88
2019-03-29T05:22:49.709Z,82.91
2019-03-29T05:25:21.634Z,81.70
2019-03-29T05:27:53.739Z,80.89
2019-03-29T05:30:24.965Z,80.41
2019-03-29T05:32:56.350Z,80.88
2019-03-29T05:35:27.546Z,80.19
2019-03-29T05:37:58.803Z,79.88
2019-03-29T05:40:35.237Z,79.32
2019-03-29T05:43:02.845Z,79.11
2019-03-29T05:45:34.185Z,78.95
2019-03-29T05:48:05.546Z,78.53
2019-03-29T05:50:37.027Z,77.92
2019-03-29T05:53:08.348Z,77.93
2019-03-29T05:55:39.727Z,77.19
2019-03-29T05:58:10.869Z,76.94
2019-03-29T06:00:42.139Z,76.45
2019-03-29T06:03:13.462Z,75.38
2019-03-29T06:05:44.806Z,74.91
2019-03-29T06:08:16.169Z,74.21
2019-03-29T06:10:49.393Z,72.78
2019-03-29T06:13:20.466Z,73.44
2019-03-29T06:15:53.233Z,72.83
2019-03-29T06:18:26.177Z,72.79
2019-03-29T06:20:57.410Z,71.90
2019-03-29T06:23:28.737Z,71.53
2019-03-29T06:25:59.945Z,70.68
2019-03-29T06:28:31.208Z,68.79
2019-03-29T06:31:02.476Z,69.35
2019-03-29T06:33:33.849Z,69.35
2019-03-29T06:36:05.498Z,69.13
2019-03-29T06:38:36.843Z,68.97
2019-03-29T06:41:08.115Z,68.24
2019-03-29T06:43:39.253Z,68.71
2019-03-29T06:46:10.510Z,68.60
2019-03-29T06:48:41.873Z,68.58
2019-03-29T06:51:13.171Z,68.48
2019-03-29T06:53:44.437Z,67.32
2019-03-29T06:56:15.786Z,67.67
2019-03-29T06:58:47.059Z,68.36
2019-03-29T07:01:18.312Z,67.77
2019-03-29T07:03:49.503Z,67.31
2019-03-29T07:06:20.838Z,66.59
2019-03-29T07:08:52.153Z,65.72
2019-03-29T07:11:23.381Z,64.85
2019-03-29T07:13:57.890Z,64.50
2019-03-29T07:16:27.692Z,64.53
2019-03-29T07:18:59.039Z,63.06
2019-03-29T07:21:30.261Z,64.58
2019-03-29T07:24:01.600Z,64.49
2019-03-29T07:26:35.811Z,63.47
2019-03-29T07:29:06.988Z,62.25
2019-03-29T07:31:38.328Z,62.21
2019-03-29T07:34:09.514Z,62.00
2019-03-29T07:36:42.197Z,60.67
2019-03-29T07:39:13.425Z,60.71
2019-03-29T07:41:44.781Z,61.74
2019-03-29T07:44:16.128Z,60.80
2019-03-29T07:46:47.360Z,60.24
2019-03-29T07:49:18.635Z,60.45
2019-03-29T07:51:49.996Z,59.86
2019-03-29T07:54:21.412Z,59.95
2019-03-29T07:56:53.559Z,59.70
2019-03-29T07:59:24.834Z,56.33
2019-03-29T08:01:56.132Z,57.23
2019-03-29T08:04:27.537Z,56.25
2019-03-29T08:06:59.801Z,59.07
2019-03-29T08:09:31.102Z,58.87
2019-03-29T08:12:02.279Z,58.90
2019-03-29T08:14:33.602Z,56.06
2019-03-29T08:17:04.895Z,60.31
2019-03-29T08:19:37.307Z,58.41
2019-03-29T08:22:09.387Z,53.75
2019-03-29T08:24:40.516Z,57.85
2019-03-29T08:27:11.767Z,51.57
2019-03-29T08:29:43.160Z,50.98
2019-03-29T08:32:14.559Z,55.99
2019-03-29T08:34:45.837Z,54.28
2019-03-29T08:37:17.915Z,54.28
2019-03-29T08:39:49.349Z,54.75
2019-03-29T08:42:20.835Z,50.79
2019-03-29T08:44:52.208Z,51.32
2019-03-29T08:47:23.727Z,51.14
2019-03-29T08:49:55.066Z,43.81
2019-03-29T08:52:27.324Z,42.33
2019-03-29T08:54:58.752Z,41.33
2019-03-29T08:57:30.062Z,40.45
2019-03-29T09:00:01.355Z,38.67
2019-03-29T09:02:33.678Z,38.99
2019-03-29T09:05:05.736Z,37.06
2019-03-29T09:07:44.523Z,36.87
2019-03-29T09:10:18.288Z,36.01
2019-03-29T09:12:49.718Z,36.77
2019-03-29T09:15:21.066Z,36.36
2019-03-29T09:17:52.415Z,37.40
2019-03-29T09:20:23.710Z,36.61
2019-03-29T09:22:55.032Z,36.94
2019-03-29T09:25:26.377Z,37.92
2019-03-29T09:27:58.682Z,36.87
2019-03-29T09:30:31.232Z,35.71
2019-03-29T09:33:02.548Z,38.37
2019-03-29T09:35:35.533Z,34.90
2019-03-29T09:38:06.990Z,35.54
2019-03-29T09:40:38.403Z,34.23
2019-03-29T09:43:09.819Z,34.66
2019-03-29T09:45:42.285Z,35.83
2019-03-29T09:48:15.939Z,35.83
2019-03-29T09:50:50.692Z,34.84
2019-03-29T09:53:21.608Z,33.27
2019-03-29T09:55:53.495Z,34.40
2019-03-29T09:58:24.980Z,36.07
2019-03-29T10:00:56.274Z,34.33
2019-03-29T10:03:27.658Z,33.66
2019-03-29T10:05:59.927Z,36.62
2019-03-29T10:08:31.064Z,36.62
2019-03-29T10:11:02.442Z,33.55
2019-03-29T10:13:33.605Z,33.96
2019-03-29T10:16:04.949Z,33.60
2019-03-29T10:18:36.284Z,33.28
2019-03-29T10:21:08.659Z,33.28
2019-03-29T10:23:39.844Z,34.22
2019-03-29T10:26:11.003Z,34.22
2019-03-29T10:28:42.239Z,32.96
2019-03-29T10:31:13.452Z,30.88
2019-03-29T10:33:44.657Z,33.81
2019-03-29T10:36:17.016Z,33.81
2019-03-29T10:38:48.362Z,32.07
2019-03-29T10:41:22.782Z,33.02
2019-03-29T10:43:52.263Z,33.69
2019-03-29T10:46:23.360Z,31.68
2019-03-29T10:48:54.461Z,33.44
2019-03-29T10:51:25.774Z,34.30
2019-03-29T10:53:56.928Z,33.14
2019-03-29T10:56:34.346Z,32.71
2019-03-29T10:59:02.567Z,31.86
2019-03-29T11:01:34.210Z,32.65
2019-03-29T11:04:05.502Z,33.82
2019-03-29T11:06:36.670Z,37.92
2019-03-29T11:09:10.835Z,31.02
2019-03-29T11:11:43.959Z,32.87
2019-03-29T11:14:15.389Z,34.95
2019-03-29T11:16:48.173Z,34.95
2019-03-29T11:19:19.817Z,33.76
2019-03-29T11:21:51.130Z,32.39
2019-03-29T11:24:22.543Z,30.87
2019-03-29T11:26:55.566Z,32.30
2019-03-29T11:29:27.053Z,30.56
2019-03-29T11:31:58.259Z,30.50
2019-03-29T11:34:31.095Z,29.88
2019-03-29T11:37:03.516Z,29.53
2019-03-29T11:39:36.431Z,30.55
2019-03-29T11:42:07.977Z,31.37
2019-03-29T11:44:39.447Z,32.51
2019-03-29T11:47:12.170Z,31.21
2019-03-29T11:49:43.626Z,33.56
2019-03-29T11:52:14.906Z,30.97
2019-03-29T11:54:46.287Z,31.72
2019-03-29T11:57:17.622Z,32.48
2019-03-29T11:59:49.002Z,29.99
2019-03-29T12:02:31.211Z,29.93
2019-03-29T12:04:53.854Z,30.79
2019-03-29T12:07:25.333Z,28.43
2019-03-29T12:09:56.669Z,29.09
2019-03-29T12:12:28.029Z,29.36
2019-03-29T12:15:00.449Z,30.95
2019-03-29T12:17:33.893Z,32.26
2019-03-29T12:20:07.130Z,35.22
2019-03-29T12:22:38.437Z,31.27
2019-03-29T12:25:10.172Z,32.11
2019-03-29T12:27:41.368Z,33.34
2019-03-29T12:30:23.708Z,33.77
2019-03-29T12:32:46.994Z,33.01
2019-03-29T12:35:18.344Z,33.64
2019-03-29T12:37:50.205Z,33.27
2019-03-29T12:40:22.293Z,34.35
2019-03-29T12:42:53.790Z,35.17
2019-03-29T12:45:24.922Z,36.60
2019-03-29T12:47:56.474Z,34.40
2019-03-29T12:50:27.789Z,36.73
2019-03-29T12:52:59.158Z,35.79
2019-03-29T12:55:30.476Z,35.58
2019-03-29T12:58:01.691Z,34.17
2019-03-29T13:00:32.874Z,34.92
2019-03-29T13:03:04.074Z,34.41
2019-03-29T13:05:35.373Z,33.94
2019-03-29T13:08:08.136Z,32.47
2019-03-29T13:10:42.366Z,33.61
2019-03-29T13:13:14.063Z,33.09
2019-03-29T13:15:45.318Z,32.97
2019-03-29T13:18:16.723Z,32.61
2019-03-29T13:20:47.951Z,33.75
2019-03-29T13:23:19.256Z,34.06
2019-03-29T13:25:51.802Z,32.11
2019-03-29T13:28:23.132Z,32.43
2019-03-29T13:30:54.414Z,31.45
2019-03-29T13:33:25.863Z,31.22
2019-03-29T13:35:59.928Z,31.11
2019-03-29T13:38:31.184Z,30.70
2019-03-29T13:41:02.471Z,30.31
2019-03-29T13:43:33.754Z,30.02
2019-03-29T13:46:05.154Z,30.29
2019-03-29T13:48:36.422Z,30.32
2019-03-29T13:51:08.679Z,30.69
2019-03-29T13:53:39.983Z,28.81
2019-03-29T13:56:11.281Z,29.48
2019-03-29T13:58:42.415Z,27.58
2019-03-29T14:01:14.680Z,30.03
2019-03-29T14:03:45.835Z,30.54
2019-03-29T14:06:19.448Z,28.26
2019-03-29T14:08:50.657Z,28.78
2019-03-29T14:11:22.198Z,30.21
2019-03-29T14:13:53.498Z,27.54
2019-03-29T14:16:24.720Z,30.04
2019-03-29T14:18:56.058Z,30.69
2019-03-29T14:21:27.298Z,29.09
2019-03-29T14:23:58.605Z,30.39
2019-03-29T14:26:29.778Z,31.95
2019-03-29T14:29:02.323Z,32.02
2019-03-29T14:31:33.508Z,31.26
2019-03-29T14:34:05.804Z,30.79
2019-03-29T14:36:38.253Z,30.75
2019-03-29T14:39:09.422Z,30.93
2019-03-29T14:41:41.895Z,32.51
2019-03-29T14:44:13.202Z,32.42
2019-03-29T14:46:44.453Z,30.48
2019-03-29T14:49:15.861Z,31.10
2019-03-29T14:51:47.521Z,32.08
2019-03-29T14:54:18.895Z,31.98
2019-03-29T14:56:50.098Z,32.09
2019-03-29T14:59:21.317Z,33.37
2019-03-29T15:01:52.523Z,34.45
2019-03-29T15:04:23.924Z,33.89
2019-03-29T15:06:55.106Z,34.56
2019-03-29T15:09:28.466Z,35.01
2019-03-29T15:11:59.666Z,37.45
2019-03-29T15:14:32.585Z,38.24
2019-03-29T15:17:04.123Z,40.82
2019-03-29T15:19:35.321Z,40.14
2019-03-29T15:22:07.619Z,41.77
2019-03-29T15:24:38.952Z,41.47
2019-03-29T15:27:10.214Z,43.18
2019-03-29T15:29:41.540Z,43.65
2019-03-29T15:32:12.749Z,43.73
2019-03-29T15:34:44.020Z,44.43
2019-03-29T15:37:15.411Z,45.12
2019-03-29T15:39:46.768Z,46.48
2019-03-29T15:42:20.408Z,47.09
2019-03-29T15:44:50.947Z,45.97
2019-03-29T15:47:22.332Z,47.89
2019-03-29T15:49:56.334Z,48.29
